Sion, Switzerland
Current Conditions -  °F | °C
As of 12:50 AM on Tuesday 21 Oct 2014 (Local Time) from LSMS Reporting Station
Rain Showers Rain Showers  
Wind Chill: 59°   Ceiling: 9600
Heat Index: 59°   Visibility: 6mi
Dew Point: 54°   Wind: 5mph
Humidity: 82%   Direction: 80°E
Pressure: 30.03"   Gusts: NA
Location:  46.25°N, 7.35°E
Report Text: LSMS 202250Z AUTO 08004KT 040V100 9999NDV -SHRA FEW045 SCT077 BKN096 15/12 Q1017 RMK WHT
Loading
Personal Weather Stations






























Interactive Weather Map
Tropical Storm Tracking
New forecast layout! Learn more

10-Day Weather Forecast

Advertisements
Track Severe Weather on mobile